createdAt,value
2023-03-22T00:00:59.012Z,1.04
2023-03-22T00:01:59.151Z,1.04
2023-03-22T00:02:59.332Z,1.04
2023-03-22T00:03:59.489Z,1.04
2023-03-22T00:04:59.605Z,1.04
2023-03-22T00:05:59.761Z,1.04
2023-03-22T00:06:59.908Z,1.04
2023-03-22T00:08:00.065Z,1.04
2023-03-22T00:09:00.227Z,1.04
2023-03-22T00:10:00.364Z,1.04
2023-03-22T00:11:00.509Z,1.04
2023-03-22T00:12:00.667Z,1.04
2023-03-22T00:13:00.760Z,1.04
2023-03-22T00:14:00.875Z,1.04
2023-03-22T00:15:00.970Z,1.04
2023-03-22T00:16:01.160Z,1.04
2023-03-22T00:17:01.226Z,1.04
2023-03-22T00:18:01.362Z,1.04
2023-03-22T00:19:01.522Z,1.04
2023-03-22T00:20:01.695Z,1.04
2023-03-22T00:21:01.842Z,1.04
2023-03-22T00:22:01.976Z,1.04
2023-03-22T00:23:02.165Z,1.04
2023-03-22T00:24:02.295Z,1.04
2023-03-22T00:25:02.436Z,1.04
2023-03-22T00:26:02.601Z,1.04
2023-03-22T00:27:02.730Z,1.04
2023-03-22T00:28:02.895Z,1.04
2023-03-22T00:29:03.043Z,1.04
2023-03-22T00:30:03.191Z,1.04
2023-03-22T00:31:03.339Z,1.04
2023-03-22T00:32:03.392Z,1.04
2023-03-22T00:33:03.567Z,1.04
2023-03-22T00:34:03.728Z,1.04
2023-03-22T00:35:03.862Z,1.04
2023-03-22T00:36:04.008Z,1.04
2023-03-22T00:37:04.167Z,1.04
2023-03-22T00:38:04.309Z,1.04
2023-03-22T00:39:04.465Z,1.04
2023-03-22T00:40:04.624Z,1.04
2023-03-22T00:41:04.760Z,1.04
2023-03-22T00:42:04.864Z,1.04
2023-03-22T00:43:05.005Z,1.04
2023-03-22T00:44:05.181Z,1.04
2023-03-22T00:45:05.317Z,1.04
2023-03-22T00:46:05.451Z,1.04
2023-03-22T00:47:05.507Z,1.04
2023-03-22T00:48:05.728Z,1.04
2023-03-22T00:49:05.840Z,1.04
2023-03-22T00:50:05.970Z,1.04
2023-03-22T00:51:06.088Z,1.04
2023-03-22T00:52:06.176Z,1.04
2023-03-22T00:53:06.313Z,1.04
2023-03-22T00:54:06.442Z,1.04
2023-03-22T00:55:06.586Z,1.04
2023-03-22T00:56:06.794Z,1.04
2023-03-22T00:57:06.910Z,1.04
2023-03-22T00:58:07.126Z,1.04
2023-03-22T00:59:07.357Z,1.04
2023-03-22T01:00:07.455Z,1.04
2023-03-22T01:01:07.627Z,1.04
2023-03-22T01:02:07.738Z,1.04
2023-03-22T01:03:07.907Z,1.04
2023-03-22T01:04:08.057Z,1.04
2023-03-22T01:05:08.154Z,1.04
2023-03-22T01:06:08.253Z,1.04
2023-03-22T01:07:08.346Z,1.04
2023-03-22T01:08:08.446Z,1.04
2023-03-22T01:09:08.609Z,1.04
2023-03-22T01:10:08.708Z,1.04
2023-03-22T01:11:08.850Z,1.04
2023-03-22T01:12:09.012Z,1.04
2023-03-22T01:13:09.123Z,1.04
2023-03-22T01:14:09.276Z,1.04
2023-03-22T01:15:09.406Z,1.04
2023-03-22T01:16:09.630Z,1.04
2023-03-22T01:17:09.662Z,1.04
2023-03-22T01:18:09.804Z,1.04
2023-03-22T01:19:09.976Z,1.04
2023-03-22T01:20:10.061Z,1.04
2023-03-22T01:21:10.225Z,1.04
2023-03-22T01:22:10.364Z,1.04
2023-03-22T01:23:10.519Z,1.04
2023-03-22T01:24:10.689Z,1.04
2023-03-22T01:25:10.818Z,1.04
2023-03-22T01:26:10.977Z,1.04
2023-03-22T01:27:11.119Z,1.04
2023-03-22T01:28:11.284Z,1.04
2023-03-22T01:29:11.441Z,1.04
2023-03-22T01:30:11.593Z,1.04
2023-03-22T01:31:11.773Z,1.04
2023-03-22T01:32:11.879Z,1.04
2023-03-22T01:33:12.082Z,1.04
2023-03-22T01:34:12.211Z,1.04
2023-03-22T01:35:12.283Z,1.04
2023-03-22T01:36:12.444Z,1.04
2023-03-22T01:37:12.630Z,1.04
2023-03-22T01:38:12.753Z,1.04
2023-03-22T01:39:12.858Z,1.04
2023-03-22T01:40:13.002Z,1.04
2023-03-22T01:41:13.096Z,1.04
2023-03-22T01:42:13.255Z,1.04
2023-03-22T01:43:13.423Z,1.04
2023-03-22T01:44:13.575Z,1.04
2023-03-22T01:45:13.715Z,1.04
2023-03-22T01:46:13.899Z,1.04
2023-03-22T01:47:14.046Z,1.04
2023-03-22T01:48:14.287Z,1.04
2023-03-22T01:49:14.364Z,1.04
2023-03-22T01:50:14.461Z,1.04
2023-03-22T01:51:14.610Z,1.04
2023-03-22T01:52:14.723Z,1.04
2023-03-22T01:53:14.865Z,1.04
2023-03-22T01:54:15.019Z,1.04
2023-03-22T01:55:15.168Z,1.04
2023-03-22T01:56:15.323Z,1.04
2023-03-22T01:57:15.467Z,1.04
2023-03-22T01:58:15.622Z,1.04
2023-03-22T01:59:15.723Z,1.04
2023-03-22T02:00:16.064Z,1.04
2023-03-22T02:01:16.038Z,1.04
2023-03-22T02:02:16.239Z,1.04
2023-03-22T02:03:16.336Z,1.04
2023-03-22T02:04:16.482Z,1.04
2023-03-22T02:05:16.636Z,1.04
2023-03-22T02:06:16.800Z,1.04
2023-03-22T02:07:16.897Z,1.04
2023-03-22T02:08:17.044Z,1.04
2023-03-22T02:09:17.190Z,1.04
2023-03-22T02:10:17.301Z,1.04
2023-03-22T02:11:17.449Z,1.04
2023-03-22T02:12:17.594Z,1.04
2023-03-22T02:13:17.754Z,1.04
2023-03-22T02:14:17.850Z,1.04
2023-03-22T02:15:18.011Z,1.04
2023-03-22T02:16:18.130Z,1.04
2023-03-22T02:17:18.256Z,1.04
2023-03-22T02:18:18.403Z,1.04
2023-03-22T02:19:18.564Z,1.04
2023-03-22T02:20:18.733Z,1.04
2023-03-22T02:21:18.860Z,1.04
2023-03-22T02:22:19.010Z,1.04
2023-03-22T02:23:19.161Z,1.04
2023-03-22T02:24:19.329Z,1.04
2023-03-22T02:25:19.415Z,1.04
2023-03-22T02:26:19.580Z,1.04
2023-03-22T02:27:19.728Z,1.04
2023-03-22T02:28:19.829Z,1.04
2023-03-22T02:29:19.970Z,1.04
2023-03-22T02:30:20.072Z,1.04
2023-03-22T02:31:20.266Z,1.04
2023-03-22T02:32:20.378Z,1.04
2023-03-22T02:33:20.553Z,1.04
2023-03-22T02:34:20.678Z,1.04
2023-03-22T02:35:20.910Z,1.04
2023-03-22T02:36:20.982Z,1.04
2023-03-22T02:37:21.095Z,1.04
2023-03-22T02:38:21.238Z,1.04
2023-03-22T02:39:21.354Z,1.04
2023-03-22T02:40:21.502Z,1.04
2023-03-22T02:41:21.601Z,1.04
2023-03-22T02:42:21.771Z,1.04
2023-03-22T02:43:21.886Z,1.04
2023-03-22T02:44:22.044Z,1.04
2023-03-22T02:45:22.194Z,1.04
2023-03-22T02:46:22.434Z,1.04
2023-03-22T02:47:22.495Z,1.04
2023-03-22T02:48:22.690Z,1.04
2023-03-22T02:49:22.749Z,1.04
2023-03-22T02:50:22.907Z,1.04
2023-03-22T02:51:23.060Z,1.04
2023-03-22T02:52:23.206Z,1.04
2023-03-22T02:53:23.306Z,1.04
2023-03-22T02:54:23.460Z,1.04
2023-03-22T02:55:23.628Z,1.04
2023-03-22T02:56:23.768Z,1.04
2023-03-22T02:57:23.911Z,1.04
2023-03-22T02:58:24.063Z,1.04
2023-03-22T02:59:24.213Z,1.04
2023-03-22T03:00:24.361Z,1.04
2023-03-22T03:01:24.579Z,1.04
2023-03-22T03:02:24.720Z,1.04
2023-03-22T03:03:24.817Z,1.04
2023-03-22T03:04:25.004Z,1.04
2023-03-22T03:05:25.132Z,1.04
2023-03-22T03:06:25.273Z,1.04
2023-03-22T03:07:25.424Z,1.04
2023-03-22T03:08:25.597Z,1.04
2023-03-22T03:09:25.743Z,1.04
2023-03-22T03:10:25.892Z,1.04
2023-03-22T03:11:25.988Z,1.04
2023-03-22T03:12:26.157Z,1.04
2023-03-22T03:13:26.304Z,1.04
2023-03-22T03:14:26.490Z,1.04
2023-03-22T03:15:26.603Z,1.04
2023-03-22T03:16:26.812Z,1.04
2023-03-22T03:17:26.841Z,1.04
2023-03-22T03:18:26.996Z,1.04
2023-03-22T03:19:27.145Z,1.04
2023-03-22T03:20:27.296Z,1.04
2023-03-22T03:21:27.448Z,1.04
2023-03-22T03:22:27.542Z,1.04
2023-03-22T03:23:27.640Z,1.04
2023-03-22T03:24:27.796Z,1.04
2023-03-22T03:25:27.943Z,1.04
2023-03-22T03:26:28.111Z,1.04
2023-03-22T03:27:28.176Z,1.04
2023-03-22T03:28:28.351Z,1.04
2023-03-22T03:29:28.448Z,1.04
2023-03-22T03:30:28.618Z,1.04
2023-03-22T03:31:28.763Z,1.04
2023-03-22T03:32:28.821Z,1.04
2023-03-22T03:33:29.044Z,1.04
2023-03-22T03:34:29.126Z,1.04
2023-03-22T03:35:29.290Z,1.04
2023-03-22T03:36:29.415Z,1.04
2023-03-22T03:37:29.567Z,1.04
2023-03-22T03:38:29.663Z,1.04
2023-03-22T03:39:29.814Z,1.04
2023-03-22T03:40:29.918Z,1.04
2023-03-22T03:41:30.024Z,1.04
2023-03-22T03:42:30.174Z,1.04
2023-03-22T03:43:30.278Z,1.04
2023-03-22T03:44:30.435Z,1.04
2023-03-22T03:45:30.640Z,1.04
2023-03-22T03:46:30.732Z,1.04
2023-03-22T03:47:30.832Z,1.04
2023-03-22T03:48:30.987Z,1.04
2023-03-22T03:49:31.084Z,1.04
2023-03-22T03:50:31.246Z,1.04
2023-03-22T03:51:31.395Z,1.04
2023-03-22T03:52:31.572Z,1.04
2023-03-22T03:53:31.705Z,1.04
2023-03-22T03:54:31.852Z,1.04
2023-03-22T03:55:32.010Z,1.04
2023-03-22T03:56:32.156Z,1.04
2023-03-22T03:57:32.304Z,1.04
2023-03-22T03:58:32.467Z,1.04
2023-03-22T03:59:32.610Z,1.04
2023-03-22T04:00:32.774Z,1.04
2023-03-22T04:01:32.875Z,1.04
2023-03-22T04:02:33.054Z,1.04
2023-03-22T04:03:33.171Z,1.04
2023-03-22T04:04:33.362Z,1.04
2023-03-22T04:05:33.474Z,1.04
2023-03-22T04:06:33.619Z,1.04
2023-03-22T04:07:33.720Z,1.04
2023-03-22T04:08:33.833Z,1.04
2023-03-22T04:09:33.978Z,1.04
2023-03-22T04:10:34.126Z,1.04
2023-03-22T04:11:34.231Z,1.04
2023-03-22T04:12:34.358Z,1.04
2023-03-22T04:13:34.453Z,1.04
2023-03-22T04:14:34.591Z,1.04
2023-03-22T04:15:34.751Z,1.04
2023-03-22T04:16:34.963Z,1.04
2023-03-22T04:17:35.044Z,1.04
2023-03-22T04:18:35.198Z,1.04
2023-03-22T04:19:35.358Z,1.04
2023-03-22T04:20:35.504Z,1.04
2023-03-22T04:21:35.650Z,1.04
2023-03-22T04:22:35.798Z,1.04
2023-03-22T04:23:35.901Z,1.04
2023-03-22T04:24:36.050Z,1.04
2023-03-22T04:25:36.206Z,1.04
2023-03-22T04:26:36.348Z,1.04
2023-03-22T04:27:36.506Z,1.04
2023-03-22T04:28:36.653Z,1.04
2023-03-22T04:29:36.807Z,2
2023-03-22T04:30:37.089Z,2
2023-03-22T04:31:37.065Z,2
2023-03-22T04:32:37.166Z,2
2023-03-22T04:33:37.310Z,2
2023-03-22T04:34:37.468Z,3.04
2023-03-22T04:35:37.659Z,3.04
2023-03-22T04:36:37.770Z,3.04
2023-03-22T04:37:37.929Z,3.04
2023-03-22T04:38:38.066Z,4
2023-03-22T04:39:38.223Z,4
2023-03-22T04:40:38.683Z,5.04
2023-03-22T04:41:38.486Z,6
2023-03-22T04:42:38.626Z,7.04
2023-03-22T04:43:38.777Z,8
2023-03-22T04:44:38.948Z,10
2023-03-22T04:45:39.083Z,12
2023-03-22T04:46:39.235Z,14
2023-03-22T04:47:39.328Z,18
2023-03-22T04:48:39.492Z,21.04
2023-03-22T04:49:39.628Z,25.04
2023-03-22T04:50:39.939Z,30
2023-03-22T04:51:39.943Z,35.04
2023-03-22T04:52:40.092Z,41.04
2023-03-22T04:53:40.248Z,50
2023-03-22T04:54:40.427Z,57.04
2023-03-22T04:55:40.549Z,67.04
2023-03-22T04:56:40.699Z,77.04
2023-03-22T04:57:40.844Z,87.04
2023-03-22T04:58:41.000Z,83.04
2023-03-22T04:59:41.160Z,92
2023-03-22T05:00:41.679Z,106
2023-03-22T05:01:41.479Z,116
2023-03-22T05:02:41.808Z,127.04
2023-03-22T05:03:41.762Z,136
2023-03-22T05:04:41.907Z,147.04
2023-03-22T05:05:42.024Z,169.12
2023-03-22T05:06:42.158Z,193.12
2023-03-22T05:07:42.320Z,223.04
2023-03-22T05:08:42.513Z,255.04
2023-03-22T05:09:42.618Z,289.12
2023-03-22T05:10:42.771Z,314.08
2023-03-22T05:11:42.876Z,338.24
2023-03-22T05:12:43.022Z,351.04
2023-03-22T05:13:43.172Z,365.12
2023-03-22T05:14:43.374Z,383.04
2023-03-22T05:15:43.530Z,398.08
2023-03-22T05:16:43.617Z,412.16
2023-03-22T05:17:43.734Z,426.24
2023-03-22T05:18:43.879Z,434.24
2023-03-22T05:19:44.033Z,457.28
2023-03-22T05:20:44.183Z,482.24
2023-03-22T05:21:44.333Z,519.04
2023-03-22T05:22:44.485Z,548.16
2023-03-22T05:23:44.636Z,577.28
2023-03-22T05:24:44.731Z,609.28
2023-03-22T05:25:44.897Z,652.16
2023-03-22T05:26:45.009Z,685.44
2023-03-22T05:27:45.148Z,720
2023-03-22T05:28:45.297Z,768
2023-03-22T05:29:45.409Z,817.28
2023-03-22T05:30:45.551Z,869.12
2023-03-22T05:31:45.790Z,920.32
2023-03-22T05:32:45.862Z,984.32
2023-03-22T05:33:45.997Z,1037.44
2023-03-22T05:34:46.158Z,1104
2023-03-22T05:35:46.359Z,1161.6
2023-03-22T05:36:46.465Z,1218.56
2023-03-22T05:37:46.614Z,1285.12
2023-03-22T05:38:46.779Z,1416.96
2023-03-22T05:39:46.909Z,1487.36
2023-03-22T05:40:47.073Z,1537.28
2023-03-22T05:41:47.182Z,1588.48
2023-03-22T05:42:47.276Z,1669.12
2023-03-22T05:43:47.432Z,1734.4
2023-03-22T05:44:47.577Z,1815.04
2023-03-22T05:45:47.727Z,1879.04
2023-03-22T05:46:47.909Z,1952
2023-03-22T05:47:48.041Z,2039.04
2023-03-22T05:48:48.180Z,2113.28
2023-03-22T05:49:48.277Z,2195.2
2023-03-22T05:50:48.428Z,2266.88
2023-03-22T05:51:48.530Z,2350.08
2023-03-22T05:52:48.673Z,2443.52
2023-03-22T05:53:48.777Z,2515.2
2023-03-22T05:54:48.879Z,2618.88
2023-03-22T05:55:49.030Z,2688
2023-03-22T05:56:49.141Z,2785.28
2023-03-22T05:57:49.285Z,2856.96
2023-03-22T05:58:49.389Z,2915.84
2023-03-22T05:59:49.539Z,2995.2
2023-03-22T06:00:49.712Z,3056.64
2023-03-22T06:01:49.881Z,3136
2023-03-22T06:02:50.048Z,3205.12
2023-03-22T06:03:50.162Z,3302.4
2023-03-22T06:04:50.332Z,3376.64
2023-03-22T06:05:50.486Z,3443.2
2023-03-22T06:06:50.641Z,3525.12
2023-03-22T06:07:50.716Z,3589.12
2023-03-22T06:08:50.862Z,3686.4
2023-03-22T06:09:51.023Z,3752.96
2023-03-22T06:10:51.177Z,3868.16
2023-03-22T06:11:51.319Z,4011.52
2023-03-22T06:12:51.480Z,4119.04
2023-03-22T06:13:51.619Z,4257.28
2023-03-22T06:14:51.807Z,4352
2023-03-22T06:15:51.932Z,4444.16
2023-03-22T06:16:52.120Z,4564.48
2023-03-22T06:17:52.208Z,4636.16
2023-03-22T06:18:52.435Z,4723.2
2023-03-22T06:19:53.222Z,4792.32
2023-03-22T06:20:52.689Z,4887.04
2023-03-22T06:21:52.833Z,4974.08
2023-03-22T06:22:52.980Z,5050.88
2023-03-22T06:23:53.109Z,5143.04
2023-03-22T06:24:53.286Z,5227.52
2023-03-22T06:25:53.346Z,5304.32
2023-03-22T06:26:53.490Z,5355.52
2023-03-22T06:27:53.687Z,5416.96
2023-03-22T06:28:53.794Z,5478.4
2023-03-22T06:29:53.944Z,5539.84
2023-03-22T06:30:54.153Z,5611.52
2023-03-22T06:31:54.248Z,5647.36
2023-03-22T06:32:54.403Z,5678.08
2023-03-22T06:33:55.869Z,5683.2
2023-03-22T06:34:54.714Z,5637.12
2023-03-22T06:35:54.880Z,5596.16
2023-03-22T06:36:54.954Z,5544.96
2023-03-22T06:37:55.064Z,5509.12
2023-03-22T06:38:55.335Z,5452.8
2023-03-22T06:39:55.513Z,5422.08
2023-03-22T06:40:55.654Z,5416.96
2023-03-22T06:41:55.747Z,5427.2
2023-03-22T06:42:55.853Z,5457.92
2023-03-22T06:43:56.001Z,5488.64
2023-03-22T06:44:56.153Z,5544.96
2023-03-22T06:45:56.292Z,5601.28
2023-03-22T06:46:56.402Z,5637.12
2023-03-22T06:47:56.580Z,5678.08
2023-03-22T06:48:56.708Z,5698.56
2023-03-22T06:49:56.821Z,5693.44
2023-03-22T06:50:56.979Z,5688.32
2023-03-22T06:51:57.108Z,5611.52
2023-03-22T06:52:57.263Z,5519.36
2023-03-22T06:53:57.449Z,5381.12
2023-03-22T06:54:57.570Z,5235.2
2023-03-22T06:55:57.710Z,5086.72
2023-03-22T06:56:57.878Z,4930.56
2023-03-22T06:57:58.076Z,4843.52
2023-03-22T06:58:58.122Z,4730.88
2023-03-22T06:59:58.290Z,4746.24
2023-03-22T07:00:58.602Z,4590.08
2023-03-22T07:01:58.576Z,4510.72
2023-03-22T07:02:58.740Z,4482.56
2023-03-22T07:03:58.882Z,4595.2
2023-03-22T07:04:58.990Z,4636.16
2023-03-22T07:05:59.133Z,4554.24
2023-03-22T07:06:59.277Z,4515.84
2023-03-22T07:07:59.405Z,4503.04
2023-03-22T07:08:59.555Z,4518.4
2023-03-22T07:09:59.710Z,4541.44
2023-03-22T07:10:59.795Z,4518.4
2023-03-22T07:11:59.958Z,4574.72
2023-03-22T07:13:00.058Z,4602.88
2023-03-22T07:14:00.211Z,4715.52
2023-03-22T07:15:00.381Z,4843.52
2023-03-22T07:16:00.614Z,4912.64
2023-03-22T07:17:00.670Z,5237.76
2023-03-22T07:18:00.798Z,5816.32
2023-03-22T07:19:00.908Z,6410.24
2023-03-22T07:20:01.104Z,6497.28
2023-03-22T07:21:01.166Z,6625.28
2023-03-22T07:22:01.320Z,6118.4
2023-03-22T07:23:01.425Z,6789.12
2023-03-22T07:24:01.566Z,7116.8
2023-03-22T07:25:01.981Z,7086.08
2023-03-22T07:26:01.936Z,7040
2023-03-22T07:27:02.100Z,7168
2023-03-22T07:28:02.243Z,7475.2
2023-03-22T07:29:02.424Z,7449.6
2023-03-22T07:30:02.575Z,8468.479
2023-03-22T07:31:02.742Z,8586.24
2023-03-22T07:32:02.931Z,8729.6
2023-03-22T07:33:03.026Z,8888.319
2023-03-22T07:34:03.186Z,8750.08
2023-03-22T07:35:03.293Z,8622.08
2023-03-22T07:36:03.440Z,8657.92
2023-03-22T07:37:03.600Z,8729.6
2023-03-22T07:38:03.773Z,8744.96
2023-03-22T07:39:03.888Z,8816.64
2023-03-22T07:40:03.993Z,9169.92
2023-03-22T07:41:04.150Z,9492.479
2023-03-22T07:42:04.251Z,9712.64
2023-03-22T07:43:04.353Z,9922.56
2023-03-22T07:44:16.838Z,9717.76
2023-03-22T07:45:04.641Z,9600
2023-03-22T07:46:04.755Z,8898.56
2023-03-22T07:47:04.877Z,8765.439
2023-03-22T07:48:05.055Z,9876.479
2023-03-22T07:49:05.165Z,9809.92
2023-03-22T07:50:05.312Z,8335.36
2023-03-22T07:51:05.464Z,9569.28
2023-03-22T07:52:05.618Z,9134.08
2023-03-22T07:53:05.800Z,8642.56
2023-03-22T07:54:07.672Z,8632.319
2023-03-22T07:55:06.043Z,9164.8
2023-03-22T07:56:06.170Z,9728
2023-03-22T07:57:06.335Z,9502.72
2023-03-22T07:58:06.488Z,9123.84
2023-03-22T07:59:06.857Z,9082.88
2023-03-22T08:00:06.799Z,9896.96
2023-03-22T08:01:06.889Z,9968.64
2023-03-22T08:02:07.102Z,9902.08
2023-03-22T08:03:07.294Z,9825.279
2023-03-22T08:04:07.377Z,10030.08
2023-03-22T08:05:07.530Z,10260.479
2023-03-22T08:06:07.697Z,10014.72
2023-03-22T08:07:07.792Z,9953.279
2023-03-22T08:08:07.965Z,10199.04
2023-03-22T08:09:08.098Z,12032
2023-03-22T08:10:08.249Z,11366.399
2023-03-22T08:11:08.401Z,11571.2
2023-03-22T08:12:08.500Z,13568
2023-03-22T08:13:08.609Z,14745.6
2023-03-22T08:14:08.771Z,13926.399
2023-03-22T08:15:08.896Z,15063.04
2023-03-22T08:16:09.046Z,13496.319
2023-03-22T08:17:09.057Z,13813.76
2023-03-22T08:18:09.204Z,13445.12
2023-03-22T08:19:09.315Z,15452.159
2023-03-22T08:20:09.460Z,11335.68
2023-03-22T08:21:09.639Z,10608.64
2023-03-22T08:22:09.773Z,9932.8
2023-03-22T08:23:09.937Z,10301.439
2023-03-22T08:24:10.070Z,10741.76
2023-03-22T08:25:10.229Z,11550.72
2023-03-22T08:26:10.399Z,10224.64
2023-03-22T08:27:10.483Z,10639.359
2023-03-22T08:28:10.626Z,10700.8
2023-03-22T08:29:10.773Z,13742.08
2023-03-22T08:30:10.938Z,13434.88
2023-03-22T08:31:12.730Z,12175.359
2023-03-22T08:32:11.224Z,12707.84
2023-03-22T08:33:11.289Z,12840.96
2023-03-22T08:34:11.427Z,12851.2
2023-03-22T08:35:11.586Z,12912.64
2023-03-22T08:36:11.732Z,13660.16
2023-03-22T08:37:11.884Z,13608.96
2023-03-22T08:38:12.036Z,14530.56
2023-03-22T08:39:12.187Z,14766.08
2023-03-22T08:40:12.414Z,14970.88
2023-03-22T08:41:12.492Z,15247.359
2023-03-22T08:42:12.652Z,15718.399
2023-03-22T08:43:12.792Z,16363.52
2023-03-22T08:44:12.982Z,18104.32
2023-03-22T08:45:13.125Z,19681.28
2023-03-22T08:46:13.336Z,19415.04
2023-03-22T08:47:13.352Z,21483.52
2023-03-22T08:48:13.539Z,21176.32
2023-03-22T08:49:13.651Z,19804.16
2023-03-22T08:50:13.807Z,20193.28
2023-03-22T08:51:13.963Z,19415.04
2023-03-22T08:52:14.084Z,19804.16
2023-03-22T08:53:14.212Z,19896.32
2023-03-22T08:54:14.358Z,20776.96
2023-03-22T08:55:14.466Z,20111.36
2023-03-22T08:56:14.614Z,19619.84
2023-03-22T08:57:14.759Z,19210.24
2023-03-22T08:58:14.913Z,18595.84
2023-03-22T08:59:15.062Z,18513.92
2023-03-22T09:00:15.173Z,18995.2
2023-03-22T09:01:15.395Z,19333.12
2023-03-22T09:02:15.466Z,19466.24
2023-03-22T09:03:15.533Z,19261.44
2023-03-22T09:04:15.701Z,17960.96
2023-03-22T09:05:15.827Z,17387.52
2023-03-22T09:06:15.989Z,17121.28
2023-03-22T09:07:16.097Z,16844.8
2023-03-22T09:08:19.342Z,17326.08
2023-03-22T09:09:16.384Z,17807.36
2023-03-22T09:10:16.557Z,18237.44
2023-03-22T09:11:17.870Z,18001.92
2023-03-22T09:12:16.815Z,19937.28
2023-03-22T09:13:16.952Z,19046.4
2023-03-22T09:14:17.105Z,21135.36
2023-03-22T09:15:17.212Z,20480
2023-03-22T09:16:17.409Z,20858.88
2023-03-22T09:17:17.396Z,26787.84
2023-03-22T09:18:17.550Z,23756.8
2023-03-22T09:19:17.717Z,21278.72
2023-03-22T09:20:17.855Z,31354.88
2023-03-22T09:21:17.998Z,23592.96
2023-03-22T09:22:18.163Z,23142.4
2023-03-22T09:23:18.303Z,25968.64
2023-03-22T09:24:18.465Z,24371.2
2023-03-22T09:25:18.605Z,22118.4
2023-03-22T09:26:18.779Z,20387.84
2023-03-22T09:27:18.924Z,22405.12
2023-03-22T09:28:19.127Z,22835.2
2023-03-22T09:29:19.211Z,22138.88
2023-03-22T09:30:19.358Z,26931.2
2023-03-22T09:31:20.484Z,21708.8
2023-03-22T09:32:19.609Z,22036.48
2023-03-22T09:33:19.762Z,20326.4
2023-03-22T09:34:19.914Z,23367.68
2023-03-22T09:35:20.126Z,22425.6
2023-03-22T09:36:20.215Z,20418.56
2023-03-22T09:37:20.373Z,20541.44
2023-03-22T09:38:20.481Z,29634.56
2023-03-22T09:39:20.638Z,27955.2
2023-03-22T09:40:20.780Z,24494.08
2023-03-22T09:41:20.940Z,27381.76
2023-03-22T09:42:21.081Z,29900.8
2023-03-22T09:43:21.242Z,37928.96
2023-03-22T09:44:21.385Z,30105.6
2023-03-22T09:45:21.549Z,28119.04
2023-03-22T09:46:21.740Z,28446.72
2023-03-22T09:47:21.815Z,28037.12
2023-03-22T09:48:21.937Z,29736.96
2023-03-22T09:49:22.087Z,27893.76
2023-03-22T09:50:22.297Z,27217.92
2023-03-22T09:51:22.293Z,26460.16
2023-03-22T09:52:22.541Z,27197.44
2023-03-22T09:53:22.594Z,31354.88
2023-03-22T09:54:22.745Z,37232.64
2023-03-22T09:55:22.910Z,47964.16
2023-03-22T09:56:23.072Z,29491.2
2023-03-22T09:57:23.200Z,36392.96
2023-03-22T09:58:23.348Z,44892.16
2023-03-22T09:59:23.466Z,31559.68
2023-03-22T10:00:23.668Z,35532.8
2023-03-22T10:01:24.013Z,32624.64
2023-03-22T10:02:23.924Z,35512.32
2023-03-22T10:03:24.010Z,29757.44
2023-03-22T10:04:24.329Z,29061.12
2023-03-22T10:05:24.308Z,22999.04
2023-03-22T10:06:24.418Z,48291.84
2023-03-22T10:07:24.576Z,42516.48
2023-03-22T10:08:24.740Z,52142.08
2023-03-22T10:09:24.899Z,52183.04
2023-03-22T10:10:25.034Z,51855.36
2023-03-22T10:11:25.183Z,35737.6
2023-03-22T10:12:25.339Z,52756.48
2023-03-22T10:13:25.480Z,45588.48
2023-03-22T10:14:25.629Z,34099.2
2023-03-22T10:15:25.779Z,54558.72
2023-03-22T10:16:26.025Z,33034.24
2023-03-22T10:17:26.091Z,50544.64
2023-03-22T10:18:26.178Z,49725.44
2023-03-22T10:19:26.346Z,30248.96
2023-03-22T10:20:26.497Z,46981.12
2023-03-22T10:21:26.664Z,16189.439
2023-03-22T10:22:26.821Z,49971.2
2023-03-22T10:23:26.949Z,17049.6
2023-03-22T10:24:27.120Z,48414.72
2023-03-22T10:25:27.242Z,48742.4
2023-03-22T10:26:27.409Z,45178.88
2023-03-22T10:27:27.545Z,49602.56
2023-03-22T10:28:27.660Z,44687.36
2023-03-22T10:29:27.817Z,33075.2
2023-03-22T10:30:27.973Z,48865.28
2023-03-22T10:31:28.149Z,47226.88
2023-03-22T10:32:28.219Z,50790.4
2023-03-22T10:33:28.364Z,55705.6
2023-03-22T10:34:28.462Z,54968.32
2023-03-22T10:35:28.669Z,33464.32
2023-03-22T10:36:28.711Z,27258.88
2023-03-22T10:37:28.863Z,32706.56
2023-03-22T10:38:28.964Z,40263.68
2023-03-22T10:39:29.068Z,32071.68
2023-03-22T10:40:29.228Z,22855.68
2023-03-22T10:41:29.324Z,22466.56
2023-03-22T10:42:29.471Z,53084.16
2023-03-22T10:43:29.629Z,51937.28
2023-03-22T10:44:29.739Z,53002.24
2023-03-22T10:45:29.850Z,29757.44
2023-03-22T10:46:30.047Z,31068.16
2023-03-22T10:47:30.136Z,20674.56
2023-03-22T10:48:30.385Z,52961.28
2023-03-22T10:49:30.391Z,52264.96
2023-03-22T10:50:30.503Z,52224
2023-03-22T10:51:30.602Z,44810.24
2023-03-22T10:52:30.757Z,54517.76
2023-03-22T10:53:30.895Z,48783.36
2023-03-22T10:54:31.011Z,71434.24
2023-03-22T10:55:31.159Z,69017.6
2023-03-22T10:56:31.251Z,67706.88
2023-03-22T10:57:31.402Z,70696.96
2023-03-22T10:58:31.521Z,71311.36
2023-03-22T10:59:31.649Z,68608
2023-03-22T11:00:31.860Z,48537.6
2023-03-22T11:01:32.032Z,17766.4
2023-03-22T11:02:32.208Z,27996.16
2023-03-22T11:03:32.277Z,18042.88
2023-03-22T11:04:32.358Z,58490.88
2023-03-22T11:05:32.510Z,59351.04
2023-03-22T11:06:32.614Z,55828.48
2023-03-22T11:07:32.780Z,57344
2023-03-22T11:08:32.917Z,63242.24
2023-03-22T11:09:33.028Z,63938.56
2023-03-22T11:10:33.238Z,63242.24
2023-03-22T11:11:33.272Z,63406.08
2023-03-22T11:12:33.431Z,61235.2
2023-03-22T11:13:33.538Z,65454.08
2023-03-22T11:14:33.638Z,67952.64
2023-03-22T11:15:33.779Z,68608
2023-03-22T11:16:33.940Z,68116.48
2023-03-22T11:17:34.075Z,67215.36
2023-03-22T11:18:34.239Z,66641.92
2023-03-22T11:19:34.382Z,67911.68
2023-03-22T11:20:34.594Z,62177.28
2023-03-22T11:21:34.698Z,63938.56
2023-03-22T11:22:34.849Z,62136.32
2023-03-22T11:23:34.980Z,58818.56
2023-03-22T11:24:35.142Z,72990.72
2023-03-22T11:25:35.305Z,74711.04
2023-03-22T11:26:37.123Z,74055.68
2023-03-22T11:27:35.492Z,59555.84
2023-03-22T11:28:35.603Z,74342.4
2023-03-22T11:29:35.704Z,72990.72
2023-03-22T11:30:35.861Z,71639.04
2023-03-22T11:31:36.295Z,73318.4
2023-03-22T11:32:36.477Z,74055.68
2023-03-22T11:33:36.551Z,73564.16
2023-03-22T11:34:36.705Z,73809.92
2023-03-22T11:35:36.890Z,74833.92
2023-03-22T11:36:37.005Z,72663.04
2023-03-22T11:37:37.152Z,76308.48
2023-03-22T11:38:37.358Z,77414.4
2023-03-22T11:39:37.473Z,77086.72
2023-03-22T11:40:37.722Z,76431.36
2023-03-22T11:41:37.739Z,75653.12
2023-03-22T11:42:37.864Z,66723.84
2023-03-22T11:43:38.022Z,33341.44
2023-03-22T11:44:38.416Z,41574.4
2023-03-22T11:45:38.395Z,40366.08
2023-03-22T11:46:38.604Z,57630.72
2023-03-22T11:47:38.978Z,62627.84
2023-03-22T11:48:39.196Z,59801.6
2023-03-22T11:49:38.879Z,57303.04
2023-03-22T11:50:39.811Z,47595.52
2023-03-22T11:51:39.184Z,38850.56
2023-03-22T11:52:39.921Z,57262.08
2023-03-22T11:53:39.768Z,64225.28
2023-03-22T11:54:39.928Z,62955.52
2023-03-22T11:55:40.382Z,52756.48
2023-03-22T11:56:39.890Z,55746.56
2023-03-22T11:57:40.584Z,59555.84
2023-03-22T11:58:40.487Z,52142.08
2023-03-22T11:59:40.833Z,68362.24
2023-03-22T12:00:40.463Z,71188.48
2023-03-22T12:01:40.601Z,71229.44
2023-03-22T12:02:41.343Z,58572.8
2023-03-22T12:03:41.323Z,65331.2
2023-03-22T12:04:41.380Z,70492.16
2023-03-22T12:05:41.637Z,65904.64
2023-03-22T12:06:41.302Z,74260.48
2023-03-22T12:07:42.127Z,70492.16
2023-03-22T12:08:41.615Z,80486.4
2023-03-22T12:09:42.369Z,86917.12
2023-03-22T12:10:41.884Z,83763.2
2023-03-22T12:11:42.032Z,78274.56
2023-03-22T12:12:42.127Z,89620.48
2023-03-22T12:13:42.235Z,93880.32
2023-03-22T12:14:42.368Z,93798.4
2023-03-22T12:15:42.770Z,90603.52
2023-03-22T12:16:42.676Z,87736.32
2023-03-22T12:17:42.777Z,90112
2023-03-22T12:18:42.928Z,82329.6
2023-03-22T12:19:43.082Z,89538.55
2023-03-22T12:20:43.270Z,85770.23
2023-03-22T12:21:43.362Z,82739.2
2023-03-22T12:22:43.509Z,76881.92
2023-03-22T12:23:43.575Z,66355.2
2023-03-22T12:24:43.737Z,50298.88
2023-03-22T12:25:43.890Z,42024.96
2023-03-22T12:26:44.036Z,40980.48
2023-03-22T12:27:44.188Z,36659.2
2023-03-22T12:28:44.347Z,38973.44
2023-03-22T12:29:44.487Z,35614.72
2023-03-22T12:30:44.643Z,38789.12
2023-03-22T12:31:44.842Z,36454.4
2023-03-22T12:32:44.985Z,37560.32